FDX67 KIND-KSLC
Flight info
| Callsign | FDX67 |
|---|---|
| Flight time | 3h 12m |
| Altitude | 28000 |
| Route | ROCKY1 SPI KP63E KD66A CKW CARTR1 |
| Aircraft | B77L/H-SDE1E2E3FGHIJ2J3J4J5M1RWXY/LB1D1 |
Departure
| Time | 2026-05-05 22:53 |
|---|---|
| Airport | Indianapolis International Airport (KIND) |
Arrival
| Time | 2026-05-06 02:05 |
|---|---|
| Airport | Salt Lake City International Airport (KSLC) |
| Time | Latitude | Longitude | Altitude | Speed | Heading |
|---|---|---|---|---|---|
| 2026-05-05 21:49 | 39.71566 | -86.27911 | 793 ft | 0 kts | 134° |
| 2026-05-05 22:40 | 39.71575 | -86.27922 | 793 ft | 3 kts | 135° |
| 2026-05-05 22:41 | 39.71588 | -86.27942 | 793 ft | 3 kts | 115° |
| 2026-05-05 22:41 | 39.71593 | -86.27967 | 793 ft | 3 kts | 75° |
| 2026-05-05 22:41 | 39.71584 | -86.27990 | 792 ft | 3 kts | 47° |
| 2026-05-05 22:41 | 39.71579 | -86.27996 | 792 ft | 1 kts | 45° |
| 2026-05-05 22:44 | 39.71580 | -86.27995 | 792 ft | 1 kts | 45° |
| 2026-05-05 22:44 | 39.71603 | -86.27967 | 792 ft | 5 kts | 41° |
| 2026-05-05 22:44 | 39.71632 | -86.27955 | 792 ft | 0 kts | 1° |
| 2026-05-05 22:45 | 39.71638 | -86.27955 | 792 ft | 5 kts | 357° |
| 2026-05-05 22:45 | 39.71674 | -86.27982 | 793 ft | 6 kts | 306° |
| 2026-05-05 22:45 | 39.71660 | -86.28058 | 793 ft | 12 kts | 235° |
| 2026-05-05 22:45 | 39.71620 | -86.28153 | 792 ft | 12 kts | 248° |
| 2026-05-05 22:46 | 39.71583 | -86.28250 | 791 ft | 12 kts | 236° |
| 2026-05-05 22:46 | 39.71546 | -86.28304 | 791 ft | 12 kts | 226° |
| 2026-05-05 22:46 | 39.71487 | -86.28381 | 793 ft | 12 kts | 224° |
| 2026-05-05 22:46 | 39.71407 | -86.28481 | 794 ft | 18 kts | 224° |
| 2026-05-05 22:47 | 39.71319 | -86.28593 | 796 ft | 18 kts | 224° |
| 2026-05-05 22:47 | 39.71232 | -86.28705 | 797 ft | 18 kts | 224° |
| 2026-05-05 22:47 | 39.71145 | -86.28817 | 797 ft | 18 kts | 224° |
| 2026-05-05 22:47 | 39.71057 | -86.28928 | 796 ft | 18 kts | 224° |
| 2026-05-05 22:48 | 39.70969 | -86.29039 | 795 ft | 18 kts | 224° |
| 2026-05-05 22:48 | 39.70882 | -86.29151 | 794 ft | 18 kts | 224° |
| 2026-05-05 22:48 | 39.70794 | -86.29263 | 793 ft | 18 kts | 224° |
| 2026-05-05 22:48 | 39.70706 | -86.29375 | 796 ft | 18 kts | 224° |
| 2026-05-05 22:49 | 39.70610 | -86.29471 | 797 ft | 18 kts | 204° |
| 2026-05-05 22:49 | 39.70501 | -86.29542 | 799 ft | 17 kts | 217° |
| 2026-05-05 22:49 | 39.70413 | -86.29650 | 798 ft | 17 kts | 224° |
| 2026-05-05 22:49 | 39.70327 | -86.29758 | 797 ft | 17 kts | 224° |
| 2026-05-05 22:50 | 39.70241 | -86.29868 | 796 ft | 17 kts | 224° |
| 2026-05-05 22:50 | 39.70154 | -86.29979 | 794 ft | 17 kts | 224° |
| 2026-05-05 22:50 | 39.70068 | -86.30089 | 795 ft | 17 kts | 224° |
| 2026-05-05 22:50 | 39.69982 | -86.30198 | 796 ft | 14 kts | 224° |
| 2026-05-05 22:51 | 39.69944 | -86.30280 | 798 ft | 10 kts | 267° |
| 2026-05-05 22:51 | 39.69959 | -86.30328 | 799 ft | 4 kts | 304° |
| 2026-05-05 22:51 | 39.69990 | -86.30377 | 799 ft | 14 kts | 311° |
| 2026-05-05 22:51 | 39.70058 | -86.30398 | 796 ft | 7 kts | 39° |
| 2026-05-05 22:52 | 39.70113 | -86.30330 | 794 ft | 25 kts | 44° |
| 2026-05-05 22:52 | 39.70390 | -86.29976 | 795 ft | 88 kts | 44° |
| 2026-05-05 22:52 | 39.70967 | -86.29236 | 792 ft | 143 kts | 45° |
| 2026-05-05 22:52 | 39.71740 | -86.28227 | 1062 ft | 161 kts | 43° |
| 2026-05-05 22:53 | 39.72544 | -86.27165 | 1582 ft | 168 kts | 41° |
| 2026-05-05 22:53 | 39.73380 | -86.26090 | 2153 ft | 171 kts | 41° |
| 2026-05-05 22:53 | 39.74173 | -86.24929 | 2566 ft | 177 kts | 65° |
| 2026-05-05 22:53 | 39.74182 | -86.23305 | 2703 ft | 193 kts | 114° |
| 2026-05-05 22:54 | 39.73292 | -86.22012 | 2993 ft | 196 kts | 158° |
| 2026-05-05 22:54 | 39.71990 | -86.21931 | 3454 ft | 189 kts | 201° |
| 2026-05-05 22:54 | 39.70957 | -86.22974 | 3824 ft | 195 kts | 235° |
| 2026-05-05 22:54 | 39.70339 | -86.24594 | 4085 ft | 210 kts | 248° |
| 2026-05-05 22:55 | 39.69877 | -86.26518 | 4303 ft | 235 kts | 252° |
| 2026-05-05 22:55 | 39.69478 | -86.28623 | 4846 ft | 245 kts | 253° |
| 2026-05-05 22:55 | 39.69072 | -86.30812 | 5466 ft | 252 kts | 253° |
| 2026-05-05 22:55 | 39.68649 | -86.33022 | 6301 ft | 252 kts | 251° |
| 2026-05-05 22:56 | 39.68202 | -86.35200 | 7180 ft | 247 kts | 251° |
| 2026-05-05 22:56 | 39.67767 | -86.37364 | 7955 ft | 251 kts | 251° |
| 2026-05-05 22:56 | 39.67303 | -86.39582 | 8588 ft | 258 kts | 250° |
| 2026-05-05 22:56 | 39.66810 | -86.41815 | 9250 ft | 263 kts | 250° |
| 2026-05-05 22:57 | 39.66320 | -86.44100 | 10047 ft | 261 kts | 251° |
| 2026-05-05 22:57 | 39.65850 | -86.46396 | 10842 ft | 260 kts | 252° |
| 2026-05-05 22:57 | 39.65376 | -86.48728 | 11028 ft | 285 kts | 251° |
| 2026-05-05 22:57 | 39.64818 | -86.51305 | 11291 ft | 307 kts | 251° |
| 2026-05-05 22:58 | 39.64225 | -86.54055 | 11674 ft | 325 kts | 252° |
| 2026-05-05 22:58 | 39.63610 | -86.56975 | 12011 ft | 345 kts | 253° |
| 2026-05-05 22:58 | 39.62964 | -86.60009 | 12802 ft | 350 kts | 253° |
| 2026-05-05 22:58 | 39.62317 | -86.63045 | 13838 ft | 350 kts | 253° |
| 2026-05-05 22:59 | 39.61674 | -86.66110 | 14581 ft | 355 kts | 254° |
| 2026-05-05 22:59 | 39.61017 | -86.69202 | 15451 ft | 355 kts | 253° |
| 2026-05-05 22:59 | 39.60334 | -86.72271 | 16404 ft | 354 kts | 253° |
| 2026-05-05 22:59 | 39.59649 | -86.75343 | 17209 ft | 357 kts | 254° |
| 2026-05-05 23:00 | 39.58275 | -86.81604 | 18585 ft | 365 kts | 254° |
| 2026-05-05 23:00 | 39.57584 | -86.84798 | 19218 ft | 371 kts | 255° |
| 2026-05-05 23:00 | 39.56884 | -86.88045 | 19826 ft | 377 kts | 255° |
| 2026-05-05 23:01 | 39.56175 | -86.91338 | 20452 ft | 382 kts | 255° |
| 2026-05-05 23:01 | 39.55456 | -86.94678 | 21049 ft | 387 kts | 255° |
| 2026-05-05 23:01 | 39.54729 | -86.98048 | 21699 ft | 390 kts | 255° |
| 2026-05-05 23:01 | 39.53994 | -87.01449 | 22263 ft | 394 kts | 255° |
| 2026-05-05 23:02 | 39.53253 | -87.04871 | 22954 ft | 395 kts | 255° |
| 2026-05-05 23:02 | 39.52507 | -87.08313 | 23546 ft | 398 kts | 255° |
| 2026-05-05 23:02 | 39.51753 | -87.11785 | 24045 ft | 402 kts | 256° |
| 2026-05-05 23:02 | 39.50996 | -87.15270 | 24590 ft | 403 kts | 256° |
| 2026-05-05 23:03 | 39.50235 | -87.18773 | 25179 ft | 404 kts | 256° |
| 2026-05-05 23:03 | 39.49674 | -87.22333 | 25738 ft | 405 kts | 263° |
| 2026-05-05 23:03 | 39.49392 | -87.25971 | 26284 ft | 406 kts | 266° |
| 2026-05-05 23:03 | 39.49274 | -87.29624 | 26806 ft | 408 kts | 269° |
| 2026-05-05 23:04 | 39.49407 | -87.33303 | 27340 ft | 410 kts | 274° |
| 2026-05-05 23:04 | 39.49661 | -87.36970 | 27887 ft | 409 kts | 274° |
| 2026-05-05 23:04 | 39.49925 | -87.40624 | 27873 ft | 407 kts | 275° |
| 2026-05-05 23:04 | 39.50187 | -87.44260 | 27875 ft | 405 kts | 274° |
| 2026-05-05 23:05 | 39.50444 | -87.47891 | 27876 ft | 405 kts | 274° |
| 2026-05-05 23:05 | 39.50696 | -87.51522 | 27886 ft | 405 kts | 274° |
| 2026-05-05 23:05 | 39.50944 | -87.55166 | 27896 ft | 409 kts | 274° |
| 2026-05-05 23:05 | 39.51193 | -87.58880 | 27986 ft | 419 kts | 274° |
| 2026-05-05 23:06 | 39.51445 | -87.62663 | 28249 ft | 424 kts | 274° |
| 2026-05-05 23:06 | 39.51696 | -87.66477 | 28677 ft | 426 kts | 274° |
| 2026-05-05 23:06 | 39.51947 | -87.70293 | 29278 ft | 423 kts | 274° |
| 2026-05-05 23:06 | 39.52192 | -87.74049 | 30181 ft | 413 kts | 275° |
| 2026-05-05 23:07 | 39.52430 | -87.77705 | 31039 ft | 402 kts | 275° |
| 2026-05-05 23:07 | 39.52662 | -87.81289 | 31689 ft | 397 kts | 275° |
| 2026-05-05 23:07 | 39.52890 | -87.84839 | 32167 ft | 395 kts | 275° |
| 2026-05-05 23:07 | 39.53117 | -87.88373 | 32585 ft | 393 kts | 275° |
| 2026-05-05 23:08 | 39.53341 | -87.91897 | 32895 ft | 393 kts | 275° |
| 2026-05-05 23:08 | 39.53566 | -87.95444 | 32880 ft | 394 kts | 275° |
| 2026-05-05 23:08 | 39.54010 | -88.02491 | 32883 ft | 391 kts | 275° |
| 2026-05-05 23:09 | 39.54445 | -88.09458 | 32901 ft | 390 kts | 275° |
| 2026-05-05 23:09 | 39.54878 | -88.16471 | 32880 ft | 390 kts | 275° |
| 2026-05-05 23:10 | 39.55306 | -88.23473 | 32875 ft | 390 kts | 275° |
| 2026-05-05 23:10 | 39.55730 | -88.30481 | 32886 ft | 390 kts | 275° |
| 2026-05-05 23:11 | 39.56150 | -88.37482 | 32879 ft | 390 kts | 274° |
| 2026-05-05 23:11 | 39.56566 | -88.44488 | 32886 ft | 390 kts | 274° |
| 2026-05-05 23:12 | 39.56978 | -88.51505 | 32899 ft | 391 kts | 274° |
| 2026-05-05 23:12 | 39.57386 | -88.58533 | 32913 ft | 390 kts | 275° |
| 2026-05-05 23:13 | 39.57790 | -88.65539 | 32908 ft | 389 kts | 275° |
| 2026-05-05 23:13 | 39.58188 | -88.72522 | 32898 ft | 387 kts | 275° |
| 2026-05-05 23:14 | 39.58685 | -88.79451 | 32897 ft | 385 kts | 279° |
| 2026-05-05 23:14 | 39.59859 | -88.86222 | 32908 ft | 385 kts | 283° |
| 2026-05-05 23:15 | 39.61602 | -88.92819 | 32899 ft | 389 kts | 288° |
| 2026-05-05 23:15 | 39.63592 | -88.99344 | 32912 ft | 389 kts | 288° |
| 2026-05-05 23:16 | 39.65567 | -89.05843 | 32901 ft | 390 kts | 288° |
| 2026-05-05 23:16 | 39.67554 | -89.12439 | 32903 ft | 390 kts | 288° |
| 2026-05-05 23:17 | 39.69519 | -89.18997 | 32916 ft | 390 kts | 288° |
| 2026-05-05 23:17 | 39.71470 | -89.25527 | 32908 ft | 390 kts | 287° |
| 2026-05-05 23:18 | 39.73429 | -89.32102 | 32910 ft | 391 kts | 287° |
| 2026-05-05 23:18 | 39.75388 | -89.38694 | 32920 ft | 391 kts | 287° |
| 2026-05-05 23:19 | 39.77342 | -89.45283 | 32923 ft | 391 kts | 287° |
| 2026-05-05 23:19 | 39.79295 | -89.51884 | 32911 ft | 391 kts | 287° |
| 2026-05-05 23:20 | 39.81242 | -89.58480 | 32934 ft | 391 kts | 287° |
| 2026-05-05 23:20 | 39.83167 | -89.65095 | 32920 ft | 390 kts | 285° |
| 2026-05-05 23:21 | 39.84541 | -89.71879 | 32916 ft | 387 kts | 278° |
| 2026-05-05 23:21 | 39.85444 | -89.78777 | 32917 ft | 386 kts | 278° |
| 2026-05-05 23:22 | 39.86342 | -89.85675 | 32917 ft | 387 kts | 278° |
| 2026-05-05 23:22 | 39.87241 | -89.92580 | 32917 ft | 387 kts | 278° |
| 2026-05-05 23:23 | 39.88138 | -89.99486 | 32915 ft | 387 kts | 278° |
| 2026-05-05 23:23 | 39.89036 | -90.06409 | 32903 ft | 387 kts | 277° |
| 2026-05-05 23:24 | 39.89928 | -90.13327 | 32907 ft | 388 kts | 277° |
| 2026-05-05 23:24 | 39.90817 | -90.20259 | 32908 ft | 388 kts | 277° |
| 2026-05-05 23:25 | 39.91698 | -90.27156 | 32916 ft | 389 kts | 277° |
| 2026-05-05 23:25 | 39.92582 | -90.34110 | 32908 ft | 389 kts | 277° |
| 2026-05-05 23:26 | 39.93463 | -90.41065 | 32923 ft | 389 kts | 277° |
| 2026-05-05 23:26 | 39.94339 | -90.48022 | 32911 ft | 389 kts | 277° |
| 2026-05-05 23:27 | 39.95208 | -90.54964 | 32918 ft | 388 kts | 277° |
| 2026-05-05 23:27 | 39.96072 | -90.61902 | 32910 ft | 388 kts | 277° |
| 2026-05-05 23:28 | 39.96932 | -90.68837 | 32909 ft | 387 kts | 277° |
| 2026-05-05 23:28 | 39.97787 | -90.75768 | 32912 ft | 387 kts | 277° |
| 2026-05-05 23:29 | 39.98637 | -90.82693 | 32914 ft | 387 kts | 277° |
| 2026-05-05 23:29 | 39.99483 | -90.89620 | 32914 ft | 387 kts | 277° |
| 2026-05-05 23:30 | 40.00182 | -90.95376 | 32917 ft | 387 kts | 276° |
| 2026-05-05 23:30 | 40.01020 | -91.02307 | 32923 ft | 387 kts | 276° |
| 2026-05-05 23:31 | 40.01853 | -91.09231 | 32925 ft | 387 kts | 276° |
| 2026-05-05 23:31 | 40.02685 | -91.16175 | 32962 ft | 387 kts | 276° |
| 2026-05-05 23:32 | 40.03512 | -91.23117 | 32933 ft | 387 kts | 276° |
| 2026-05-05 23:32 | 40.04335 | -91.30069 | 32925 ft | 387 kts | 276° |
| 2026-05-05 23:33 | 40.05154 | -91.37017 | 32921 ft | 387 kts | 276° |
| 2026-05-05 23:33 | 40.05968 | -91.43964 | 32917 ft | 387 kts | 276° |
| 2026-05-05 23:34 | 40.06778 | -91.50909 | 32919 ft | 387 kts | 276° |
| 2026-05-05 23:34 | 40.07583 | -91.57849 | 32922 ft | 386 kts | 276° |
| 2026-05-05 23:35 | 40.08383 | -91.64783 | 32918 ft | 386 kts | 276° |
| 2026-05-05 23:35 | 40.09177 | -91.71708 | 32918 ft | 386 kts | 276° |
| 2026-05-05 23:36 | 40.09968 | -91.78636 | 32921 ft | 385 kts | 276° |
| 2026-05-05 23:36 | 40.10753 | -91.85553 | 32927 ft | 385 kts | 276° |
| 2026-05-05 23:37 | 40.11533 | -91.92472 | 32942 ft | 385 kts | 275° |
| 2026-05-05 23:37 | 40.12310 | -91.99391 | 32928 ft | 385 kts | 275° |
| 2026-05-05 23:38 | 40.13076 | -92.06254 | 32931 ft | 384 kts | 275° |
| 2026-05-05 23:38 | 40.13844 | -92.13172 | 32936 ft | 384 kts | 275° |
| 2026-05-05 23:39 | 40.14606 | -92.20080 | 32939 ft | 384 kts | 275° |
| 2026-05-05 23:39 | 40.15364 | -92.26986 | 32939 ft | 384 kts | 275° |
| 2026-05-05 23:40 | 40.16118 | -92.33893 | 32942 ft | 384 kts | 275° |
| 2026-05-05 23:40 | 40.16867 | -92.40800 | 32944 ft | 384 kts | 275° |
| 2026-05-05 23:41 | 40.17613 | -92.47710 | 32944 ft | 383 kts | 275° |
| 2026-05-05 23:41 | 40.18353 | -92.54607 | 32946 ft | 383 kts | 275° |
| 2026-05-05 23:42 | 40.19090 | -92.61517 | 32948 ft | 383 kts | 275° |
| 2026-05-05 23:42 | 40.19822 | -92.68422 | 32969 ft | 383 kts | 274° |
| 2026-05-05 23:43 | 40.20546 | -92.75288 | 32936 ft | 383 kts | 274° |
| 2026-05-05 23:43 | 40.21270 | -92.82191 | 32927 ft | 383 kts | 274° |
| 2026-05-05 23:44 | 40.21988 | -92.89090 | 32958 ft | 383 kts | 274° |
| 2026-05-05 23:44 | 40.22704 | -92.95998 | 32940 ft | 383 kts | 274° |
| 2026-05-05 23:45 | 40.23414 | -93.02898 | 32934 ft | 383 kts | 274° |
| 2026-05-05 23:45 | 40.24120 | -93.09795 | 32942 ft | 382 kts | 274° |
| 2026-05-05 23:46 | 40.24822 | -93.16686 | 32944 ft | 382 kts | 274° |
| 2026-05-05 23:46 | 40.25518 | -93.23568 | 32937 ft | 381 kts | 274° |
| 2026-05-05 23:47 | 40.26210 | -93.30448 | 32936 ft | 381 kts | 274° |
| 2026-05-05 23:47 | 40.26897 | -93.37328 | 32935 ft | 381 kts | 274° |
| 2026-05-05 23:48 | 40.27580 | -93.44213 | 32940 ft | 381 kts | 273° |
| 2026-05-05 23:48 | 40.28259 | -93.51098 | 32939 ft | 381 kts | 273° |
| 2026-05-05 23:49 | 40.28934 | -93.57987 | 32936 ft | 382 kts | 273° |
| 2026-05-05 23:49 | 40.29603 | -93.64880 | 32940 ft | 382 kts | 273° |
| 2026-05-05 23:50 | 40.30272 | -93.71782 | 32940 ft | 382 kts | 273° |
| 2026-05-05 23:50 | 40.30937 | -93.78683 | 32936 ft | 382 kts | 273° |
| 2026-05-05 23:51 | 40.31599 | -93.85588 | 32943 ft | 382 kts | 273° |
| 2026-05-05 23:51 | 40.32255 | -93.92491 | 32938 ft | 381 kts | 273° |
| 2026-05-05 23:52 | 40.32906 | -93.99387 | 32939 ft | 381 kts | 273° |
| 2026-05-05 23:52 | 40.33552 | -94.06286 | 32935 ft | 381 kts | 273° |
| 2026-05-05 23:53 | 40.34195 | -94.13180 | 32941 ft | 381 kts | 273° |
| 2026-05-05 23:53 | 40.34833 | -94.20079 | 32962 ft | 381 kts | 272° |
| 2026-05-05 23:54 | 40.35468 | -94.26979 | 32945 ft | 381 kts | 272° |
| 2026-05-05 23:54 | 40.36098 | -94.33878 | 32946 ft | 381 kts | 272° |
| 2026-05-05 23:55 | 40.36725 | -94.40785 | 32945 ft | 381 kts | 272° |
| 2026-05-05 23:55 | 40.37345 | -94.47673 | 32943 ft | 381 kts | 272° |
| 2026-05-05 23:56 | 40.37962 | -94.54565 | 32947 ft | 380 kts | 272° |
| 2026-05-05 23:56 | 40.38571 | -94.61410 | 33004 ft | 380 kts | 272° |
| 2026-05-05 23:57 | 40.39179 | -94.68313 | 32955 ft | 382 kts | 272° |
| 2026-05-05 23:57 | 40.39786 | -94.75232 | 32959 ft | 382 kts | 272° |
| 2026-05-05 23:58 | 40.40388 | -94.82155 | 32958 ft | 382 kts | 272° |
| 2026-05-05 23:58 | 40.40988 | -94.89082 | 32954 ft | 382 kts | 272° |
| 2026-05-05 23:59 | 40.41583 | -94.96014 | 32958 ft | 382 kts | 271° |
| 2026-05-05 23:59 | 40.42174 | -95.02949 | 32955 ft | 382 kts | 271° |
| 2026-05-06 00:00 | 40.42760 | -95.09882 | 32958 ft | 382 kts | 271° |
| 2026-05-06 00:00 | 40.43342 | -95.16808 | 32957 ft | 382 kts | 271° |
| 2026-05-06 00:01 | 40.43920 | -95.23735 | 32959 ft | 382 kts | 271° |
| 2026-05-06 00:01 | 40.44493 | -95.30669 | 32961 ft | 382 kts | 271° |
| 2026-05-06 00:02 | 40.45063 | -95.37604 | 32966 ft | 382 kts | 271° |
| 2026-05-06 00:02 | 40.45629 | -95.44546 | 32966 ft | 383 kts | 271° |
| 2026-05-06 00:03 | 40.46192 | -95.51500 | 32963 ft | 383 kts | 271° |
| 2026-05-06 00:03 | 40.46750 | -95.58453 | 32968 ft | 383 kts | 271° |
| 2026-05-06 00:04 | 40.47306 | -95.65414 | 32970 ft | 383 kts | 271° |
| 2026-05-06 00:04 | 40.47856 | -95.72371 | 32963 ft | 383 kts | 271° |
| 2026-05-06 00:05 | 40.48675 | -95.82818 | 32972 ft | 383 kts | 271° |
| 2026-05-06 00:06 | 40.49215 | -95.89784 | 32971 ft | 383 kts | 271° |
| 2026-05-06 00:06 | 40.49749 | -95.96710 | 32971 ft | 384 kts | 271° |
| 2026-05-06 00:07 | 40.50503 | -96.03674 | 32974 ft | 387 kts | 275° |
| 2026-05-06 00:07 | 40.51502 | -96.10616 | 32988 ft | 387 kts | 274° |
| 2026-05-06 00:08 | 40.52497 | -96.17567 | 32979 ft | 387 kts | 274° |
| 2026-05-06 00:08 | 40.53485 | -96.24536 | 32981 ft | 387 kts | 274° |
| 2026-05-06 00:09 | 40.54467 | -96.31502 | 32982 ft | 387 kts | 274° |
| 2026-05-06 00:09 | 40.55442 | -96.38463 | 32980 ft | 387 kts | 274° |
| 2026-05-06 00:10 | 40.56414 | -96.45430 | 32980 ft | 387 kts | 274° |
| 2026-05-06 00:10 | 40.57381 | -96.52398 | 32994 ft | 388 kts | 274° |
| 2026-05-06 00:11 | 40.58344 | -96.59374 | 32986 ft | 388 kts | 274° |
| 2026-05-06 00:11 | 40.59305 | -96.66362 | 32984 ft | 388 kts | 274° |
| 2026-05-06 00:12 | 40.60262 | -96.73356 | 32985 ft | 388 kts | 274° |
| 2026-05-06 00:12 | 40.61215 | -96.80352 | 32981 ft | 388 kts | 274° |
| 2026-05-06 00:13 | 40.62164 | -96.87347 | 32984 ft | 388 kts | 274° |
| 2026-05-06 00:13 | 40.62948 | -96.93163 | 32985 ft | 389 kts | 274° |
| 2026-05-06 00:14 | 40.63891 | -97.00174 | 32976 ft | 389 kts | 274° |
| 2026-05-06 00:14 | 40.64829 | -97.07191 | 32983 ft | 389 kts | 274° |
| 2026-05-06 00:15 | 40.65763 | -97.14207 | 32986 ft | 389 kts | 274° |
| 2026-05-06 00:15 | 40.66693 | -97.21226 | 32988 ft | 389 kts | 274° |
| 2026-05-06 00:16 | 40.67613 | -97.28205 | 32989 ft | 389 kts | 274° |
| 2026-05-06 00:16 | 40.68542 | -97.35289 | 32989 ft | 391 kts | 274° |
| 2026-05-06 00:17 | 40.69458 | -97.42315 | 32991 ft | 392 kts | 274° |
| 2026-05-06 00:17 | 40.70380 | -97.49411 | 32988 ft | 393 kts | 274° |
| 2026-05-06 00:18 | 40.71298 | -97.56507 | 32986 ft | 393 kts | 274° |
| 2026-05-06 00:18 | 40.72212 | -97.63621 | 32986 ft | 394 kts | 274° |
| 2026-05-06 00:19 | 40.73124 | -97.70743 | 32991 ft | 394 kts | 274° |
| 2026-05-06 00:19 | 40.74032 | -97.77871 | 32995 ft | 395 kts | 274° |
| 2026-05-06 00:20 | 40.74937 | -97.85018 | 32997 ft | 395 kts | 274° |
| 2026-05-06 00:20 | 40.75837 | -97.92160 | 32994 ft | 395 kts | 273° |
| 2026-05-06 00:21 | 40.76734 | -97.99315 | 33008 ft | 396 kts | 274° |
| 2026-05-06 00:21 | 40.77627 | -98.06486 | 33001 ft | 397 kts | 274° |
| 2026-05-06 00:22 | 40.78521 | -98.13692 | 33002 ft | 398 kts | 274° |
| 2026-05-06 00:22 | 40.79412 | -98.20916 | 33004 ft | 399 kts | 274° |
| 2026-05-06 00:23 | 40.80300 | -98.28146 | 33004 ft | 399 kts | 274° |
| 2026-05-06 00:23 | 40.81184 | -98.35382 | 32991 ft | 399 kts | 274° |
| 2026-05-06 00:24 | 40.82062 | -98.42619 | 33002 ft | 399 kts | 274° |
| 2026-05-06 00:24 | 40.82932 | -98.49823 | 33012 ft | 402 kts | 274° |
| 2026-05-06 00:25 | 40.83808 | -98.57126 | 33007 ft | 403 kts | 274° |
| 2026-05-06 00:25 | 40.84683 | -98.64453 | 33005 ft | 405 kts | 274° |
| 2026-05-06 00:26 | 40.85557 | -98.71803 | 33015 ft | 405 kts | 274° |
| 2026-05-06 00:26 | 40.86427 | -98.79176 | 33011 ft | 407 kts | 274° |
| 2026-05-06 00:27 | 40.87296 | -98.86567 | 33009 ft | 408 kts | 274° |
| 2026-05-06 00:27 | 40.88162 | -98.93983 | 33005 ft | 408 kts | 274° |
| 2026-05-06 00:28 | 40.89022 | -99.01391 | 33012 ft | 408 kts | 274° |
| 2026-05-06 00:28 | 40.89878 | -99.08803 | 33009 ft | 407 kts | 274° |
| 2026-05-06 00:29 | 40.90728 | -99.16210 | 33006 ft | 407 kts | 274° |
| 2026-05-06 00:29 | 40.91573 | -99.23619 | 33005 ft | 408 kts | 274° |
| 2026-05-06 00:30 | 40.92414 | -99.31038 | 33007 ft | 408 kts | 274° |
| 2026-05-06 00:30 | 40.93252 | -99.38465 | 33014 ft | 408 kts | 274° |
| 2026-05-06 00:31 | 40.94084 | -99.45892 | 33020 ft | 408 kts | 274° |
| 2026-05-06 00:31 | 40.94909 | -99.53292 | 33024 ft | 410 kts | 274° |
| 2026-05-06 00:32 | 40.95737 | -99.60771 | 33033 ft | 412 kts | 274° |
| 2026-05-06 00:32 | 40.96564 | -99.68287 | 33032 ft | 413 kts | 274° |
| 2026-05-06 00:33 | 40.97387 | -99.75809 | 33024 ft | 414 kts | 274° |
| 2026-05-06 00:33 | 40.98206 | -99.83338 | 33027 ft | 414 kts | 274° |
| 2026-05-06 00:34 | 40.99022 | -99.90883 | 33025 ft | 414 kts | 274° |
| 2026-05-06 00:34 | 40.99833 | -99.98435 | 33032 ft | 414 kts | 274° |
| 2026-05-06 00:35 | 41.00732 | -100.05975 | 33020 ft | 416 kts | 275° |
| 2026-05-06 00:35 | 41.01759 | -100.13506 | 33023 ft | 416 kts | 276° |
| 2026-05-06 00:36 | 41.02783 | -100.21039 | 33031 ft | 415 kts | 275° |
| 2026-05-06 00:36 | 41.03788 | -100.28581 | 33024 ft | 416 kts | 275° |
| 2026-05-06 00:37 | 41.04780 | -100.36135 | 33029 ft | 416 kts | 275° |
| 2026-05-06 00:37 | 41.05764 | -100.43691 | 33021 ft | 416 kts | 275° |
| 2026-05-06 00:38 | 41.06743 | -100.51250 | 33021 ft | 416 kts | 275° |
| 2026-05-06 00:38 | 41.07712 | -100.58763 | 33053 ft | 416 kts | 275° |
| 2026-05-06 00:39 | 41.08683 | -100.66344 | 33024 ft | 417 kts | 275° |
| 2026-05-06 00:39 | 41.09649 | -100.73915 | 33017 ft | 417 kts | 275° |
| 2026-05-06 00:40 | 41.10610 | -100.81486 | 33022 ft | 416 kts | 275° |
| 2026-05-06 00:40 | 41.11565 | -100.89064 | 33023 ft | 416 kts | 275° |
| 2026-05-06 00:41 | 41.12516 | -100.96643 | 33027 ft | 416 kts | 275° |
| 2026-05-06 00:41 | 41.13460 | -101.04210 | 33029 ft | 416 kts | 275° |
| 2026-05-06 00:42 | 41.14393 | -101.11734 | 33038 ft | 416 kts | 275° |
| 2026-05-06 00:42 | 41.15328 | -101.19310 | 33036 ft | 416 kts | 275° |
| 2026-05-06 00:43 | 41.16257 | -101.26884 | 33030 ft | 416 kts | 275° |
| 2026-05-06 00:43 | 41.17182 | -101.34461 | 33039 ft | 416 kts | 275° |
| 2026-05-06 00:44 | 41.18099 | -101.42020 | 33033 ft | 416 kts | 275° |
| 2026-05-06 00:44 | 41.19014 | -101.49611 | 33033 ft | 416 kts | 275° |
| 2026-05-06 00:45 | 41.19919 | -101.57159 | 33035 ft | 416 kts | 275° |
| 2026-05-06 00:45 | 41.20825 | -101.64751 | 33033 ft | 416 kts | 275° |
| 2026-05-06 00:46 | 41.21723 | -101.72331 | 33024 ft | 415 kts | 275° |
| 2026-05-06 00:46 | 41.22617 | -101.79914 | 33025 ft | 415 kts | 275° |
| 2026-05-06 00:47 | 41.23504 | -101.87490 | 33026 ft | 415 kts | 275° |
| 2026-05-06 00:47 | 41.24387 | -101.95066 | 33027 ft | 415 kts | 275° |
| 2026-05-06 00:48 | 41.25265 | -102.02655 | 33027 ft | 415 kts | 275° |
| 2026-05-06 00:48 | 41.26139 | -102.10244 | 33024 ft | 416 kts | 275° |
| 2026-05-06 00:49 | 41.27004 | -102.17813 | 33025 ft | 417 kts | 275° |
| 2026-05-06 00:49 | 41.27878 | -102.25497 | 33017 ft | 418 kts | 275° |
| 2026-05-06 00:50 | 41.28736 | -102.33083 | 33017 ft | 418 kts | 275° |
| 2026-05-06 00:50 | 41.29595 | -102.40729 | 33004 ft | 418 kts | 274° |
| 2026-05-06 00:51 | 41.30450 | -102.48383 | 33002 ft | 418 kts | 275° |
| 2026-05-06 00:51 | 41.31299 | -102.56039 | 33012 ft | 418 kts | 274° |
| 2026-05-06 00:52 | 41.32143 | -102.63686 | 32996 ft | 417 kts | 274° |
| 2026-05-06 00:52 | 41.32979 | -102.71307 | 33002 ft | 416 kts | 274° |
| 2026-05-06 00:53 | 41.33807 | -102.78914 | 32985 ft | 415 kts | 274° |
| 2026-05-06 00:53 | 41.34628 | -102.86508 | 32998 ft | 414 kts | 274° |
| 2026-05-06 00:54 | 41.35445 | -102.94106 | 33012 ft | 414 kts | 274° |
| 2026-05-06 00:54 | 41.36258 | -103.01708 | 33012 ft | 415 kts | 274° |
| 2026-05-06 00:55 | 41.37064 | -103.09311 | 33012 ft | 415 kts | 274° |
| 2026-05-06 00:55 | 41.37867 | -103.16924 | 33013 ft | 416 kts | 274° |
| 2026-05-06 00:56 | 41.38666 | -103.24547 | 33031 ft | 416 kts | 274° |
| 2026-05-06 00:56 | 41.39457 | -103.32134 | 33030 ft | 417 kts | 274° |
| 2026-05-06 00:57 | 41.40248 | -103.39784 | 33031 ft | 417 kts | 274° |
| 2026-05-06 00:57 | 41.41033 | -103.47428 | 33052 ft | 417 kts | 274° |
| 2026-05-06 00:58 | 41.41815 | -103.55081 | 33009 ft | 413 kts | 275° |
| 2026-05-06 00:58 | 41.42200 | -103.58857 | 32751 ft | 410 kts | 274° |
| 2026-05-06 00:58 | 41.42581 | -103.62615 | 32425 ft | 408 kts | 274° |
| 2026-05-06 00:58 | 41.42958 | -103.66357 | 32148 ft | 406 kts | 274° |
| 2026-05-06 00:59 | 41.43332 | -103.70087 | 32120 ft | 408 kts | 274° |
| 2026-05-06 00:59 | 41.44086 | -103.77651 | 32060 ft | 415 kts | 274° |
| 2026-05-06 01:00 | 41.44844 | -103.85287 | 32074 ft | 415 kts | 274° |
| 2026-05-06 01:00 | 41.45596 | -103.92904 | 32079 ft | 415 kts | 274° |
| 2026-05-06 01:01 | 41.46218 | -103.99237 | 32092 ft | 415 kts | 274° |
| 2026-05-06 01:01 | 41.46962 | -104.06873 | 32091 ft | 416 kts | 274° |
| 2026-05-06 01:02 | 41.47821 | -104.15764 | 32059 ft | 416 kts | 274° |
| 2026-05-06 01:02 | 41.48555 | -104.23419 | 32041 ft | 417 kts | 274° |
| 2026-05-06 01:03 | 41.49168 | -104.29843 | 32058 ft | 417 kts | 274° |
| 2026-05-06 01:03 | 41.49894 | -104.37517 | 32062 ft | 417 kts | 274° |
| 2026-05-06 01:04 | 41.50616 | -104.45199 | 32068 ft | 417 kts | 274° |
| 2026-05-06 01:04 | 41.51328 | -104.52820 | 32068 ft | 416 kts | 274° |
| 2026-05-06 01:05 | 41.52037 | -104.60477 | 32066 ft | 415 kts | 274° |
| 2026-05-06 01:05 | 41.52739 | -104.68120 | 32063 ft | 414 kts | 274° |
| 2026-05-06 01:06 | 41.53435 | -104.75750 | 32068 ft | 414 kts | 274° |
| 2026-05-06 01:06 | 41.54127 | -104.83379 | 32068 ft | 414 kts | 274° |
| 2026-05-06 01:07 | 41.54812 | -104.91003 | 32071 ft | 414 kts | 274° |
| 2026-05-06 01:07 | 41.55493 | -104.98645 | 32045 ft | 415 kts | 274° |
| 2026-05-06 01:08 | 41.56172 | -105.06311 | 32061 ft | 416 kts | 274° |
| 2026-05-06 01:08 | 41.56847 | -105.13998 | 32044 ft | 417 kts | 274° |
| 2026-05-06 01:09 | 41.57519 | -105.21706 | 32042 ft | 418 kts | 274° |
| 2026-05-06 01:09 | 41.58187 | -105.29436 | 32017 ft | 419 kts | 275° |
| 2026-05-06 01:10 | 41.58851 | -105.37174 | 32057 ft | 421 kts | 275° |
| 2026-05-06 01:10 | 41.59512 | -105.44949 | 32051 ft | 422 kts | 275° |
| 2026-05-06 01:11 | 41.60170 | -105.52752 | 32046 ft | 423 kts | 275° |
| 2026-05-06 01:11 | 41.60824 | -105.60558 | 32043 ft | 424 kts | 275° |
| 2026-05-06 01:12 | 41.61474 | -105.68387 | 32027 ft | 424 kts | 275° |
| 2026-05-06 01:12 | 41.62119 | -105.76227 | 32044 ft | 425 kts | 275° |
| 2026-05-06 01:13 | 41.62758 | -105.84049 | 32035 ft | 427 kts | 275° |
| 2026-05-06 01:13 | 41.63397 | -105.91946 | 32033 ft | 428 kts | 275° |
| 2026-05-06 01:14 | 41.64345 | -106.03805 | 32020 ft | 428 kts | 276° |
| 2026-05-06 01:14 | 41.64972 | -106.11717 | 32024 ft | 428 kts | 276° |
| 2026-05-06 01:15 | 41.65593 | -106.19624 | 32021 ft | 428 kts | 276° |
| 2026-05-06 01:15 | 41.66209 | -106.27537 | 32007 ft | 428 kts | 276° |
| 2026-05-06 01:16 | 41.66818 | -106.35454 | 31957 ft | 427 kts | 277° |
| 2026-05-06 01:16 | 41.67421 | -106.43350 | 31997 ft | 427 kts | 277° |
| 2026-05-06 01:17 | 41.68019 | -106.51247 | 31976 ft | 427 kts | 277° |
| 2026-05-06 01:17 | 41.68612 | -106.59155 | 31977 ft | 428 kts | 277° |
| 2026-05-06 01:18 | 41.69201 | -106.67073 | 31963 ft | 428 kts | 277° |
| 2026-05-06 01:18 | 41.69782 | -106.75003 | 31966 ft | 428 kts | 278° |
| 2026-05-06 01:19 | 41.70362 | -106.82942 | 31959 ft | 429 kts | 278° |
| 2026-05-06 01:19 | 41.70936 | -106.90883 | 31973 ft | 429 kts | 278° |
| 2026-05-06 01:20 | 41.71503 | -106.98828 | 31976 ft | 429 kts | 278° |
| 2026-05-06 01:20 | 41.72065 | -107.06777 | 31949 ft | 429 kts | 278° |
| 2026-05-06 01:21 | 41.72622 | -107.14724 | 32024 ft | 429 kts | 278° |
| 2026-05-06 01:21 | 41.73176 | -107.22703 | 31999 ft | 431 kts | 278° |
| 2026-05-06 01:22 | 41.73724 | -107.30689 | 31991 ft | 431 kts | 278° |
| 2026-05-06 01:22 | 41.74267 | -107.38678 | 31982 ft | 431 kts | 278° |
| 2026-05-06 01:23 | 41.74803 | -107.46654 | 31968 ft | 430 kts | 279° |
| 2026-05-06 01:23 | 41.75337 | -107.54641 | 31976 ft | 430 kts | 279° |
| 2026-05-06 01:24 | 41.75860 | -107.62631 | 31974 ft | 430 kts | 279° |
| 2026-05-06 01:24 | 41.76369 | -107.70612 | 31970 ft | 431 kts | 279° |
| 2026-05-06 01:25 | 41.76872 | -107.78609 | 31949 ft | 430 kts | 280° |
| 2026-05-06 01:25 | 41.77372 | -107.86605 | 31961 ft | 431 kts | 280° |
| 2026-05-06 01:26 | 41.77868 | -107.94616 | 31967 ft | 432 kts | 279° |
| 2026-05-06 01:26 | 41.78359 | -108.02644 | 31960 ft | 432 kts | 279° |
| 2026-05-06 01:27 | 41.78845 | -108.10683 | 31971 ft | 433 kts | 279° |
| 2026-05-06 01:27 | 41.79321 | -108.18656 | 31954 ft | 431 kts | 279° |
| 2026-05-06 01:28 | 41.79794 | -108.26661 | 31968 ft | 430 kts | 279° |
| 2026-05-06 01:28 | 41.80259 | -108.34635 | 31970 ft | 429 kts | 279° |
| 2026-05-06 01:29 | 41.80719 | -108.42611 | 31962 ft | 429 kts | 280° |
| 2026-05-06 01:29 | 41.81173 | -108.50589 | 31963 ft | 430 kts | 280° |
| 2026-05-06 01:30 | 41.81625 | -108.58604 | 31972 ft | 432 kts | 280° |
| 2026-05-06 01:30 | 41.82073 | -108.66650 | 31981 ft | 434 kts | 280° |
| 2026-05-06 01:31 | 41.82515 | -108.74735 | 31981 ft | 435 kts | 280° |
| 2026-05-06 01:31 | 41.82953 | -108.82836 | 31969 ft | 436 kts | 280° |
| 2026-05-06 01:32 | 41.83389 | -108.90968 | 31979 ft | 438 kts | 280° |
| 2026-05-06 01:32 | 41.83820 | -108.99152 | 32008 ft | 441 kts | 280° |
| 2026-05-06 01:33 | 41.84247 | -109.07357 | 31985 ft | 440 kts | 280° |
| 2026-05-06 01:33 | 41.84665 | -109.15526 | 31954 ft | 438 kts | 281° |
| 2026-05-06 01:34 | 41.85075 | -109.23667 | 31954 ft | 437 kts | 281° |
| 2026-05-06 01:34 | 41.85480 | -109.31806 | 31934 ft | 437 kts | 281° |
| 2026-05-06 01:35 | 41.85877 | -109.39897 | 31919 ft | 438 kts | 280° |
| 2026-05-06 01:35 | 41.86273 | -109.48053 | 31884 ft | 439 kts | 280° |
| 2026-05-06 01:36 | 41.86662 | -109.56229 | 31882 ft | 440 kts | 280° |
| 2026-05-06 01:36 | 41.87048 | -109.64429 | 31889 ft | 441 kts | 280° |
| 2026-05-06 01:37 | 41.87428 | -109.72658 | 31865 ft | 442 kts | 280° |
| 2026-05-06 01:37 | 41.87802 | -109.80894 | 31799 ft | 443 kts | 280° |
| 2026-05-06 01:38 | 41.88171 | -109.89142 | 31837 ft | 443 kts | 281° |
| 2026-05-06 01:38 | 41.88536 | -109.97415 | 31804 ft | 444 kts | 281° |
| 2026-05-06 01:39 | 41.88895 | -110.05690 | 31817 ft | 445 kts | 280° |
| 2026-05-06 01:39 | 41.89248 | -110.13987 | 31781 ft | 445 kts | 281° |
| 2026-05-06 01:40 | 41.89596 | -110.22287 | 31830 ft | 446 kts | 280° |
| 2026-05-06 01:40 | 41.89939 | -110.30607 | 31881 ft | 447 kts | 280° |
| 2026-05-06 01:41 | 41.90277 | -110.38958 | 31920 ft | 449 kts | 280° |
| 2026-05-06 01:41 | 41.90609 | -110.47338 | 31899 ft | 450 kts | 280° |
| 2026-05-06 01:42 | 41.90932 | -110.55690 | 31907 ft | 442 kts | 280° |
| 2026-05-06 01:42 | 41.91084 | -110.59763 | 31825 ft | 430 kts | 280° |
| 2026-05-06 01:42 | 41.91229 | -110.63706 | 31450 ft | 418 kts | 281° |
| 2026-05-06 01:43 | 41.91375 | -110.67567 | 31128 ft | 411 kts | 281° |
| 2026-05-06 01:43 | 41.91523 | -110.71380 | 30668 ft | 407 kts | 281° |
| 2026-05-06 01:43 | 41.91669 | -110.75173 | 30179 ft | 407 kts | 281° |
| 2026-05-06 01:43 | 41.91810 | -110.78956 | 29725 ft | 404 kts | 281° |
| 2026-05-06 01:44 | 41.91906 | -110.82713 | 29133 ft | 405 kts | 278° |
| 2026-05-06 01:44 | 41.91800 | -110.86512 | 28690 ft | 408 kts | 275° |
| 2026-05-06 01:44 | 41.91593 | -110.90200 | 28176 ft | 397 kts | 274° |
| 2026-05-06 01:44 | 41.91363 | -110.93871 | 27357 ft | 393 kts | 274° |
| 2026-05-06 01:45 | 41.91213 | -110.96338 | 26820 ft | 394 kts | 274° |
| 2026-05-06 01:45 | 41.91006 | -111.00026 | 26452 ft | 396 kts | 274° |
| 2026-05-06 01:45 | 41.90808 | -111.03675 | 26320 ft | 389 kts | 274° |
| 2026-05-06 01:45 | 41.90621 | -111.07267 | 26054 ft | 383 kts | 274° |
| 2026-05-06 01:46 | 41.90442 | -111.10824 | 25651 ft | 382 kts | 274° |
| 2026-05-06 01:46 | 41.90265 | -111.14392 | 25277 ft | 383 kts | 274° |
| 2026-05-06 01:46 | 41.90090 | -111.17975 | 24933 ft | 386 kts | 274° |
| 2026-05-06 01:46 | 41.89912 | -111.21578 | 24818 ft | 387 kts | 273° |
| 2026-05-06 01:47 | 41.89730 | -111.25177 | 24827 ft | 386 kts | 273° |
| 2026-05-06 01:47 | 41.89546 | -111.28772 | 24807 ft | 385 kts | 273° |
| 2026-05-06 01:47 | 41.89361 | -111.32335 | 24589 ft | 381 kts | 273° |
| 2026-05-06 01:47 | 41.89177 | -111.35863 | 24296 ft | 377 kts | 273° |
| 2026-05-06 01:48 | 41.88996 | -111.39365 | 23990 ft | 377 kts | 273° |
| 2026-05-06 01:48 | 41.88814 | -111.42871 | 23653 ft | 376 kts | 273° |
| 2026-05-06 01:48 | 41.88633 | -111.46328 | 23305 ft | 376 kts | 273° |
| 2026-05-06 01:48 | 41.88450 | -111.49814 | 22911 ft | 374 kts | 273° |
| 2026-05-06 01:49 | 41.88264 | -111.53294 | 22525 ft | 371 kts | 272° |
| 2026-05-06 01:49 | 41.88066 | -111.56729 | 22264 ft | 368 kts | 270° |
| 2026-05-06 01:49 | 41.87518 | -111.60575 | 21852 ft | 372 kts | 262° |
| 2026-05-06 01:49 | 41.86830 | -111.63915 | 21531 ft | 371 kts | 261° |
| 2026-05-06 01:50 | 41.86107 | -111.67228 | 21196 ft | 369 kts | 260° |
| 2026-05-06 01:50 | 41.85401 | -111.70528 | 20883 ft | 367 kts | 261° |
| 2026-05-06 01:50 | 41.84716 | -111.73822 | 20575 ft | 367 kts | 261° |
| 2026-05-06 01:50 | 41.84045 | -111.77117 | 20200 ft | 366 kts | 261° |
| 2026-05-06 01:51 | 41.83389 | -111.80397 | 19860 ft | 362 kts | 261° |
| 2026-05-06 01:51 | 41.82746 | -111.83642 | 19538 ft | 359 kts | 261° |
| 2026-05-06 01:51 | 41.82107 | -111.86863 | 19218 ft | 355 kts | 261° |
| 2026-05-06 01:51 | 41.81474 | -111.90042 | 18900 ft | 352 kts | 261° |
| 2026-05-06 01:52 | 41.80843 | -111.93201 | 18585 ft | 349 kts | 261° |
| 2026-05-06 01:52 | 41.80164 | -111.96298 | 18262 ft | 346 kts | 252° |
| 2026-05-06 01:52 | 41.78828 | -111.99011 | 17913 ft | 358 kts | 230° |
| 2026-05-06 01:52 | 41.76761 | -112.00956 | 17646 ft | 369 kts | 210° |
| 2026-05-06 01:53 | 41.74275 | -112.01941 | 17390 ft | 378 kts | 191° |
| 2026-05-06 01:53 | 41.71637 | -112.02329 | 17128 ft | 384 kts | 189° |
| 2026-05-06 01:53 | 41.68966 | -112.02680 | 16854 ft | 386 kts | 189° |
| 2026-05-06 01:53 | 41.66298 | -112.03046 | 16537 ft | 384 kts | 189° |
| 2026-05-06 01:54 | 41.63653 | -112.03431 | 16279 ft | 380 kts | 189° |
| 2026-05-06 01:54 | 41.61071 | -112.03824 | 16162 ft | 368 kts | 189° |
| 2026-05-06 01:54 | 41.58581 | -112.04214 | 15977 ft | 351 kts | 190° |
| 2026-05-06 01:54 | 41.56199 | -112.04577 | 15599 ft | 338 kts | 188° |
| 2026-05-06 01:55 | 41.53879 | -112.04682 | 15124 ft | 330 kts | 181° |
| 2026-05-06 01:55 | 41.51601 | -112.04545 | 14595 ft | 327 kts | 179° |
| 2026-05-06 01:55 | 41.49308 | -112.04356 | 14270 ft | 330 kts | 179° |
| 2026-05-06 01:55 | 41.47020 | -112.04175 | 14068 ft | 328 kts | 179° |
| 2026-05-06 01:56 | 41.44753 | -112.04014 | 13951 ft | 325 kts | 179° |
| 2026-05-06 01:56 | 41.42527 | -112.03872 | 13797 ft | 322 kts | 179° |
| 2026-05-06 01:56 | 41.40297 | -112.03740 | 13506 ft | 322 kts | 179° |
| 2026-05-06 01:56 | 41.38052 | -112.03611 | 13235 ft | 322 kts | 179° |
| 2026-05-06 01:57 | 41.35818 | -112.03486 | 13068 ft | 320 kts | 179° |
| 2026-05-06 01:57 | 41.33612 | -112.03365 | 12866 ft | 316 kts | 179° |
| 2026-05-06 01:57 | 41.31416 | -112.03245 | 12614 ft | 315 kts | 179° |
| 2026-05-06 01:57 | 41.29233 | -112.03124 | 12364 ft | 313 kts | 179° |
| 2026-05-06 01:58 | 41.27058 | -112.03005 | 12125 ft | 312 kts | 179° |
| 2026-05-06 01:58 | 41.24913 | -112.02886 | 12025 ft | 306 kts | 178° |
| 2026-05-06 01:58 | 41.22785 | -112.02743 | 11935 ft | 308 kts | 178° |
| 2026-05-06 01:58 | 41.20628 | -112.02589 | 11772 ft | 312 kts | 178° |
| 2026-05-06 01:59 | 41.18461 | -112.02355 | 11563 ft | 315 kts | 174° |
| 2026-05-06 01:59 | 41.16303 | -112.01990 | 11169 ft | 308 kts | 173° |
| 2026-05-06 01:59 | 41.14241 | -112.01627 | 11040 ft | 292 kts | 173° |
| 2026-05-06 01:59 | 41.12214 | -112.01333 | 10526 ft | 296 kts | 175° |
| 2026-05-06 02:00 | 41.10151 | -112.01101 | 10059 ft | 298 kts | 176° |
| 2026-05-06 02:00 | 41.08087 | -112.00871 | 9594 ft | 296 kts | 176° |
| 2026-05-06 02:00 | 41.06065 | -112.00640 | 9133 ft | 286 kts | 175° |
| 2026-05-06 02:00 | 41.04130 | -112.00416 | 8788 ft | 275 kts | 175° |
| 2026-05-06 02:01 | 41.02262 | -112.00198 | 8368 ft | 262 kts | 175° |
| 2026-05-06 02:01 | 41.00493 | -111.99992 | 8007 ft | 249 kts | 175° |
| 2026-05-06 02:01 | 40.98783 | -111.99794 | 7761 ft | 245 kts | 176° |
| 2026-05-06 02:01 | 40.97075 | -111.99599 | 7437 ft | 245 kts | 175° |
| 2026-05-06 02:02 | 40.95413 | -111.99406 | 7089 ft | 233 kts | 175° |
| 2026-05-06 02:02 | 40.93842 | -111.99222 | 6800 ft | 219 kts | 175° |
| 2026-05-06 02:02 | 40.92385 | -111.99049 | 6621 ft | 203 kts | 175° |
| 2026-05-06 02:02 | 40.91012 | -111.98892 | 6421 ft | 193 kts | 175° |
| 2026-05-06 02:03 | 40.89713 | -111.98754 | 6124 ft | 180 kts | 175° |
| 2026-05-06 02:03 | 40.88534 | -111.98629 | 5906 ft | 161 kts | 175° |
| 2026-05-06 02:03 | 40.87434 | -111.98493 | 5643 ft | 161 kts | 173° |
| 2026-05-06 02:03 | 40.86272 | -111.98329 | 5434 ft | 175 kts | 175° |
| 2026-05-06 02:04 | 40.85050 | -111.98211 | 5207 ft | 176 kts | 176° |
| 2026-05-06 02:04 | 40.83853 | -111.98071 | 4965 ft | 168 kts | 175° |
| 2026-05-06 02:04 | 40.82727 | -111.97929 | 4688 ft | 158 kts | 176° |
| 2026-05-06 02:04 | 40.81658 | -111.97807 | 4476 ft | 151 kts | 176° |
| 2026-05-06 02:05 | 40.80608 | -111.97680 | 4264 ft | 152 kts | 176° |
| 2026-05-06 02:05 | 40.79631 | -111.97569 | 4236 ft | 128 kts | 175° |
| 2026-05-06 02:05 | 40.78959 | -111.97492 | 4236 ft | 64 kts | 175° |
| 2026-05-06 02:05 | 40.78636 | -111.97470 | 4235 ft | 37 kts | 191° |
| 2026-05-06 02:06 | 40.78496 | -111.97548 | 4235 ft | 12 kts | 209° |
| 2026-05-06 02:06 | 40.78488 | -111.97637 | 4234 ft | 12 kts | 318° |
| 2026-05-06 02:06 | 40.78567 | -111.97660 | 4235 ft | 12 kts | 354° |
| 2026-05-06 02:06 | 40.78649 | -111.97670 | 4236 ft | 12 kts | 355° |
| 2026-05-06 02:07 | 40.78773 | -111.97684 | 4236 ft | 26 kts | 355° |
| 2026-05-06 02:07 | 40.78960 | -111.97705 | 4236 ft | 27 kts | 355° |
| 2026-05-06 02:07 | 40.79123 | -111.97725 | 4235 ft | 19 kts | 355° |
| 2026-05-06 02:07 | 40.79258 | -111.97741 | 4235 ft | 19 kts | 355° |
| 2026-05-06 02:08 | 40.79393 | -111.97756 | 4235 ft | 19 kts | 355° |
| 2026-05-06 02:08 | 40.79528 | -111.97772 | 4235 ft | 19 kts | 354° |
| 2026-05-06 02:08 | 40.79662 | -111.97786 | 4235 ft | 19 kts | 355° |
| 2026-05-06 02:08 | 40.79797 | -111.97802 | 4235 ft | 19 kts | 355° |
| 2026-05-06 02:09 | 40.79932 | -111.97819 | 4235 ft | 19 kts | 354° |
| 2026-05-06 02:09 | 40.80066 | -111.97834 | 4236 ft | 19 kts | 355° |
| 2026-05-06 02:09 | 40.80201 | -111.97850 | 4236 ft | 19 kts | 356° |
| 2026-05-06 02:09 | 40.80334 | -111.97824 | 4236 ft | 19 kts | 12° |
| 2026-05-06 02:10 | 40.80422 | -111.97823 | 4236 ft | 19 kts | 355° |
| 2026-05-06 02:10 | 40.80553 | -111.97838 | 4235 ft | 19 kts | 355° |
| 2026-05-06 02:10 | 40.80677 | -111.97854 | 4235 ft | 16 kts | 354° |
| 2026-05-06 02:10 | 40.80741 | -111.97924 | 4235 ft | 13 kts | 277° |
| 2026-05-06 02:11 | 40.80724 | -111.98037 | 4235 ft | 11 kts | 236° |
| 2026-05-06 02:11 | 40.80648 | -111.98056 | 4235 ft | 11 kts | 199° |
| 2026-05-06 02:11 | 40.80620 | -111.98149 | 4235 ft | 11 kts | 265° |
| 2026-05-06 02:11 | 40.80613 | -111.98253 | 4236 ft | 11 kts | 265° |
| 2026-05-06 02:12 | 40.80606 | -111.98358 | 4235 ft | 11 kts | 265° |
| 2026-05-06 02:12 | 40.80569 | -111.98431 | 4236 ft | 4 kts | 193° |
| 2026-05-06 02:12 | 40.80547 | -111.98430 | 4235 ft | 3 kts | 175° |
| 2026-05-06 02:12 | 40.80526 | -111.98428 | 4236 ft | 2 kts | 175° |